createdAt,value
2018-08-24T00:01:52.494Z,100205.26
2018-08-24T00:04:21.641Z,100207.03
2018-08-24T00:06:50.124Z,100198.19
2018-08-24T00:09:22.745Z,100202.59
2018-08-24T00:11:51.345Z,100197.77
2018-08-24T00:14:19.792Z,100201.33
2018-08-24T00:16:48.370Z,100198.23
2018-08-24T00:19:17.313Z,100190.72
2018-08-24T00:21:46.601Z,100187.64
2018-08-24T00:24:15.542Z,100180.14
2018-08-24T00:26:44.703Z,100181.05
2018-08-24T00:29:13.130Z,100182.83
2018-08-24T00:31:41.612Z,100181.95
2018-08-24T00:34:10.580Z,100179.30
2018-08-24T00:36:39.010Z,100173.53
2018-08-24T00:39:08.748Z,100172.63
2018-08-24T00:41:37.437Z,100176.55
2018-08-24T00:44:05.989Z,100162.36
2018-08-24T00:46:34.453Z,100160.16
2018-08-24T00:49:02.994Z,100155.75
2018-08-24T00:51:31.466Z,100145.17
2018-08-24T00:53:59.921Z,100140.79
2018-08-24T00:56:28.446Z,100139.94
2018-08-24T00:58:56.924Z,100135.53
2018-08-24T01:01:25.406Z,100135.98
2018-08-24T01:03:53.925Z,100133.83
2018-08-24T01:06:23.401Z,100132.11
2018-08-24T01:08:51.930Z,100128.59
2018-08-24T01:11:20.829Z,100121.13
2018-08-24T01:13:51.687Z,100124.30
2018-08-24T01:16:26.377Z,100118.58
2018-08-24T01:18:54.953Z,100109.79
2018-08-24T01:21:23.429Z,100117.78
2018-08-24T01:23:52.287Z,100112.98
2018-08-24T01:26:24.854Z,100109.52
2018-08-24T01:28:54.429Z,100106.89
2018-08-24T01:31:22.869Z,100106.89
2018-08-24T01:33:51.577Z,100097.65
2018-08-24T01:36:20.231Z,100099.03
2018-08-24T01:38:48.688Z,100102.16
2018-08-24T01:41:17.480Z,100101.31
2018-08-24T01:43:45.925Z,100088.94
2018-08-24T01:46:15.779Z,100084.10
2018-08-24T01:48:44.362Z,100083.22
2018-08-24T01:51:13.270Z,100086.77
2018-08-24T01:53:41.745Z,100081.02
2018-08-24T01:56:10.335Z,100076.58
2018-08-24T01:58:38.777Z,100072.59
2018-08-24T02:01:07.221Z,100076.55
2018-08-24T02:03:35.845Z,100065.96
2018-08-24T02:06:05.297Z,100071.69
2018-08-24T02:08:34.274Z,100069.50
2018-08-24T02:11:03.203Z,100071.25
2018-08-24T02:13:36.974Z,100071.25
2018-08-24T02:16:05.513Z,100066.37
2018-08-24T02:18:39.257Z,100066.81
2018-08-24T02:21:13.007Z,100066.81
2018-08-24T02:23:41.613Z,100064.61
2018-08-24T02:26:10.045Z,100056.22
2018-08-24T02:28:38.775Z,100051.36
2018-08-24T02:31:07.905Z,100050.93
2018-08-24T02:33:40.055Z,100041.27
2018-08-24T02:36:09.609Z,100039.09
2018-08-24T02:38:38.397Z,100036.91
2018-08-24T02:41:06.901Z,100038.27
2018-08-24T02:43:35.585Z,100043.20
2018-08-24T02:46:04.033Z,100035.31
2018-08-24T02:48:32.522Z,100037.97
2018-08-24T02:51:01.369Z,100041.08
2018-08-24T02:53:29.846Z,100030.95
2018-08-24T02:55:58.326Z,100032.33
2018-08-24T02:58:27.202Z,100029.25
2018-08-24T03:00:55.813Z,100029.25
2018-08-24T03:03:24.274Z,100026.17
2018-08-24T03:05:53.157Z,100022.17
2018-08-24T03:08:21.639Z,100019.52
2018-08-24T03:10:50.081Z,100015.08
2018-08-24T03:13:18.640Z,100014.61
2018-08-24T03:15:47.070Z,100012.80
2018-08-24T03:18:15.585Z,100012.33
2018-08-24T03:20:44.449Z,100003.03
2018-08-24T03:23:12.945Z,100011.85
2018-08-24T03:25:41.486Z,100002.61
2018-08-24T03:28:10.206Z,99999.95
2018-08-24T03:30:38.635Z,99996.45
2018-08-24T03:33:07.430Z,99995.13
2018-08-24T03:35:35.943Z,99999.13
2018-08-24T03:38:04.533Z,99996.53
2018-08-24T03:40:33.001Z,99990.38
2018-08-24T03:43:02.117Z,99988.63
2018-08-24T03:45:30.521Z,99992.61
2018-08-24T03:47:59.005Z,99988.20
2018-08-24T03:50:27.652Z,99968.59
2018-08-24T03:52:56.272Z,99989.98
2018-08-24T03:55:24.767Z,99995.31
2018-08-24T03:57:53.407Z,99989.95
2018-08-24T04:00:21.857Z,99986.37
2018-08-24T04:02:50.398Z,99981.91
2018-08-24T04:05:18.937Z,99980.53
2018-08-24T04:07:47.346Z,99981.35
2018-08-24T04:10:15.805Z,99982.15
2018-08-24T04:12:44.589Z,99983.39
2018-08-24T04:15:13.065Z,99979.84
2018-08-24T04:17:43.414Z,99977.61
2018-08-24T04:20:12.243Z,99980.23
2018-08-24T04:22:40.857Z,99968.73
2018-08-24T04:25:09.805Z,99970.06
2018-08-24T04:27:38.574Z,99963.91
2018-08-24T04:30:07.393Z,99969.67
2018-08-24T04:32:35.897Z,99970.49
2018-08-24T04:35:05.405Z,99971.34
2018-08-24T04:37:34.090Z,99970.91
2018-08-24T04:40:02.618Z,99974.53
2018-08-24T04:42:31.111Z,99973.70
2018-08-24T04:44:59.550Z,99975.45
2018-08-24T04:47:28.167Z,99981.64
2018-08-24T04:49:57.421Z,99980.31
2018-08-24T04:52:25.939Z,99976.86
2018-08-24T04:54:54.382Z,99974.72
2018-08-24T04:57:23.085Z,99977.31
2018-08-24T04:59:51.525Z,99974.13
2018-08-24T05:02:19.978Z,99978.09
2018-08-24T05:04:48.562Z,99976.81
2018-08-24T05:07:16.986Z,99968.40
2018-08-24T05:09:45.745Z,99971.45
2018-08-24T05:12:14.573Z,99970.15
2018-08-24T05:14:43.096Z,99963.48
2018-08-24T05:17:11.577Z,99949.28
2018-08-24T05:19:46.665Z,99946.99
2018-08-24T05:22:15.100Z,99942.98
2018-08-24T05:24:44.081Z,99941.66
2018-08-24T05:27:12.897Z,99945.58
2018-08-24T05:29:41.393Z,99935.83
2018-08-24T05:32:09.973Z,99935.84
2018-08-24T05:34:38.734Z,99932.25
2018-08-24T05:37:07.593Z,99927.33
2018-08-24T05:39:36.001Z,99925.95
2018-08-24T05:42:04.637Z,99919.19
2018-08-24T05:44:33.132Z,99917.31
2018-08-24T05:47:01.593Z,99912.78
2018-08-24T05:49:30.182Z,99912.27
2018-08-24T05:51:58.702Z,99916.09
2018-08-24T05:54:27.132Z,99914.21
2018-08-24T05:56:55.621Z,99914.11
2018-08-24T05:59:24.552Z,99923.70
2018-08-24T06:01:53.037Z,99904.58
2018-08-24T06:04:21.919Z,99904.41
2018-08-24T06:06:50.378Z,99900.19
2018-08-24T06:09:18.957Z,99901.23
2018-08-24T06:11:47.676Z,99897.06
2018-08-24T06:14:16.185Z,99890.16
2018-08-24T06:16:50.199Z,99888.14
2018-08-24T06:19:19.323Z,99883.66
2018-08-24T06:21:47.742Z,99881.42
2018-08-24T06:24:16.165Z,99883.09
2018-08-24T06:26:45.710Z,99877.28
2018-08-24T06:29:14.206Z,99878.03
2018-08-24T06:31:42.636Z,99880.95
2018-08-24T06:34:11.686Z,99882.70
2018-08-24T06:36:40.101Z,99879.39
2018-08-24T06:39:11.125Z,99882.72
2018-08-24T06:41:40.072Z,99882.56
2018-08-24T06:44:08.601Z,99878.73
2018-08-24T06:46:37.037Z,99880.69
2018-08-24T06:49:05.662Z,99875.10
2018-08-24T06:51:34.162Z,99877.92
2018-08-24T06:54:02.668Z,99871.59
2018-08-24T06:56:31.233Z,99869.53
2018-08-24T06:58:59.669Z,99881.00
2018-08-24T07:01:28.118Z,99877.83
2018-08-24T07:03:57.008Z,99874.36
2018-08-24T07:06:25.424Z,99865.33
2018-08-24T07:08:53.836Z,99868.39
2018-08-24T07:11:22.577Z,99870.95
2018-08-24T07:13:51.152Z,99867.00
2018-08-24T07:16:19.913Z,99865.85
2018-08-24T07:18:48.470Z,99871.56
2018-08-24T07:21:16.892Z,99867.48
2018-08-24T07:23:45.329Z,99870.45
2018-08-24T07:26:14.785Z,99866.67
2018-08-24T07:28:43.964Z,99860.64
2018-08-24T07:31:13.268Z,99854.02
2018-08-24T07:33:41.955Z,99844.45
2018-08-24T07:36:10.417Z,99843.48
2018-08-24T07:38:38.843Z,99848.22
2018-08-24T07:41:07.953Z,99851.38
2018-08-24T07:43:36.373Z,99843.08
2018-08-24T07:46:05.275Z,99847.02
2018-08-24T07:48:34.069Z,99858.50
2018-08-24T07:51:02.486Z,99853.25
2018-08-24T07:53:30.897Z,99852.30
2018-08-24T07:55:59.877Z,99852.12
2018-08-24T07:58:28.296Z,99855.33
2018-08-24T08:00:56.709Z,99856.67
2018-08-24T08:03:25.311Z,99850.11
2018-08-24T08:05:54.066Z,99841.37
2018-08-24T08:08:22.502Z,99838.45
2018-08-24T08:10:51.045Z,99838.95
2018-08-24T08:13:19.461Z,99836.47
2018-08-24T08:15:47.887Z,99832.95
2018-08-24T08:18:17.076Z,99831.56
2018-08-24T08:20:45.506Z,99832.52
2018-08-24T08:23:14.253Z,99831.42
2018-08-24T08:25:42.809Z,99835.33
2018-08-24T08:28:11.257Z,99832.48
2018-08-24T08:30:39.689Z,99828.05
2018-08-24T08:33:08.221Z,99831.99
2018-08-24T08:35:37.036Z,99822.73
2018-08-24T08:38:05.457Z,99838.57
2018-08-24T08:40:34.002Z,99833.87
2018-08-24T08:43:03.304Z,99831.56
2018-08-24T08:45:31.742Z,99842.88
2018-08-24T08:48:00.316Z,99836.34
2018-08-24T08:50:28.761Z,99833.73
2018-08-24T08:52:57.921Z,99835.63
2018-08-24T08:55:26.461Z,99824.14
2018-08-24T08:57:54.877Z,99832.21
2018-08-24T09:00:23.322Z,99819.57
2018-08-24T09:02:52.206Z,99817.41
2018-08-24T09:05:20.637Z,99814.09
2018-08-24T09:07:49.221Z,99804.01
2018-08-24T09:10:18.542Z,99807.62
2018-08-24T09:12:47.220Z,99810.63
2018-08-24T09:15:15.641Z,99806.28
2018-08-24T09:19:54.749Z,99814.88
2018-08-24T09:22:28.293Z,99799.00
2018-08-24T09:25:01.947Z,99800.08
2018-08-24T09:27:36.844Z,99802.78
2018-08-24T09:30:06.287Z,99800.66
2018-08-24T09:32:35.145Z,99792.41
2018-08-24T09:35:03.466Z,99790.78
2018-08-24T09:37:38.783Z,99786.75
2018-08-24T09:40:08.037Z,99787.28
2018-08-24T09:42:36.564Z,99791.81
2018-08-24T09:45:05.901Z,99778.38
2018-08-24T09:47:39.425Z,99780.47
2018-08-24T09:50:13.441Z,99777.95
2018-08-24T09:52:42.281Z,99785.73
2018-08-24T09:55:10.853Z,99772.03
2018-08-24T09:57:39.641Z,99774.63
2018-08-24T10:00:08.193Z,99778.58
2018-08-24T10:02:42.646Z,99772.98
2018-08-24T10:05:16.392Z,99778.04
2018-08-24T10:07:49.478Z,99787.36
2018-08-24T10:10:17.928Z,99779.23
2018-08-24T10:12:47.185Z,99776.95
2018-08-24T10:15:15.698Z,99772.02
2018-08-24T10:17:45.077Z,99779.26
2018-08-24T10:20:13.984Z,99773.31
2018-08-24T10:22:43.072Z,99773.50
2018-08-24T10:25:11.521Z,99768.41
2018-08-24T10:27:40.345Z,99766.14
2018-08-24T10:30:08.879Z,99766.50
2018-08-24T10:32:37.399Z,99768.17
2018-08-24T10:35:06.071Z,99767.73
2018-08-24T10:37:34.528Z,99768.50
2018-08-24T10:40:02.961Z,99764.36
2018-08-24T10:42:31.497Z,99764.46
2018-08-24T10:45:00.102Z,99758.25
2018-08-24T10:47:29.149Z,99757.59
2018-08-24T10:49:57.696Z,99751.47
2018-08-24T10:52:26.177Z,99755.60
2018-08-24T10:54:54.606Z,99753.91
2018-08-24T10:57:23.748Z,99754.20
2018-08-24T10:59:52.203Z,99763.11
2018-08-24T11:02:21.123Z,99764.03
2018-08-24T11:04:49.625Z,99759.77
2018-08-24T11:07:18.151Z,99765.80
2018-08-24T11:09:46.563Z,99762.88
2018-08-24T11:12:15.327Z,99767.11
2018-08-24T11:14:44.404Z,99762.29
2018-08-24T11:17:13.361Z,99776.56
2018-08-24T11:19:42.024Z,99752.28
2018-08-24T11:22:10.470Z,99751.97
2018-08-24T11:24:38.901Z,99750.94
2018-08-24T11:27:07.410Z,99764.70
2018-08-24T11:29:36.041Z,99757.45
2018-08-24T11:32:04.470Z,99762.77
2018-08-24T11:34:33.034Z,99756.92
2018-08-24T11:37:01.925Z,99752.09
2018-08-24T11:39:30.376Z,99751.07
2018-08-24T11:42:05.886Z,99752.61
2018-08-24T11:44:34.485Z,99749.92
2018-08-24T11:47:03.050Z,99752.45
2018-08-24T11:49:32.801Z,99745.73
2018-08-24T11:52:01.501Z,99741.73
2018-08-24T11:54:30.088Z,99746.89
2018-08-24T11:56:58.648Z,99753.67
2018-08-24T11:59:27.343Z,99752.77
2018-08-24T12:01:55.770Z,99758.55
2018-08-24T12:04:24.209Z,99756.03
2018-08-24T12:06:52.978Z,99760.10
2018-08-24T12:09:21.410Z,99750.86
2018-08-24T12:11:49.881Z,99744.11
2018-08-24T12:14:18.749Z,99745.34
2018-08-24T12:16:47.197Z,99743.47
2018-08-24T12:19:15.668Z,99739.44
2018-08-24T12:21:44.460Z,99747.98
2018-08-24T12:24:12.781Z,99742.72
2018-08-24T12:26:41.290Z,99758.05
2018-08-24T12:29:10.525Z,99753.92
2018-08-24T12:31:39.010Z,99753.08
2018-08-24T12:34:07.549Z,99757.58
2018-08-24T12:36:36.361Z,99763.30
2018-08-24T12:39:07.253Z,99759.48
2018-08-24T12:41:35.694Z,99753.95
2018-08-24T12:44:04.471Z,99753.09
2018-08-24T12:46:32.889Z,99747.08
2018-08-24T12:49:01.355Z,99747.05
2018-08-24T12:51:30.801Z,99753.51
2018-08-24T12:53:59.222Z,99747.16
2018-08-24T12:56:27.678Z,99752.62
2018-08-24T12:58:56.284Z,99765.78
2018-08-24T13:01:24.728Z,99762.97
2018-08-24T13:03:53.177Z,99766.53
2018-08-24T13:06:22.021Z,99753.34
2018-08-24T13:08:50.461Z,99764.45
2018-08-24T13:11:18.996Z,99764.86
2018-08-24T13:13:54.221Z,99768.05
2018-08-24T13:16:22.701Z,99773.56
2018-08-24T13:18:51.749Z,99757.95
2018-08-24T13:21:20.597Z,99753.08
2018-08-24T13:23:49.057Z,99752.67
2018-08-24T13:26:17.695Z,99768.91
2018-08-24T13:28:46.361Z,99770.63
2018-08-24T13:31:14.809Z,99756.97
2018-08-24T13:33:43.505Z,99753.36
2018-08-24T13:36:12.652Z,99746.86
2018-08-24T13:38:41.224Z,99746.86
2018-08-24T13:41:09.875Z,99756.09
2018-08-24T13:43:38.545Z,99761.91
2018-08-24T13:46:07.026Z,99766.86
2018-08-24T13:48:35.609Z,99745.55
2018-08-24T13:51:04.134Z,99763.29
2018-08-24T13:53:32.862Z,99761.14
2018-08-24T13:56:01.287Z,99760.20
2018-08-24T13:58:30.349Z,99760.02
2018-08-24T14:00:58.832Z,99764.14
2018-08-24T14:03:27.268Z,99761.43
2018-08-24T14:05:56.016Z,99752.58
2018-08-24T14:08:24.505Z,99753.76
2018-08-24T14:10:52.943Z,99746.79
2018-08-24T14:13:21.723Z,99751.89
2018-08-24T14:15:50.336Z,99748.17
2018-08-24T14:18:19.118Z,99748.17
2018-08-24T14:20:47.636Z,99752.36
2018-08-24T14:23:16.130Z,99756.66
2018-08-24T14:25:44.640Z,99753.80
2018-08-24T14:28:13.893Z,99756.41
2018-08-24T14:30:42.477Z,99747.97
2018-08-24T14:33:10.922Z,99753.56
2018-08-24T14:35:39.449Z,99745.91
2018-08-24T14:38:07.983Z,99740.84
2018-08-24T14:40:36.402Z,99736.57
2018-08-24T14:43:05.054Z,99731.84
2018-08-24T14:45:33.534Z,99736.17
2018-08-24T14:48:02.000Z,99739.02
2018-08-24T14:50:30.628Z,99738.75
2018-08-24T14:52:59.142Z,99746.11
2018-08-24T14:55:27.734Z,99737.53
2018-08-24T14:57:56.565Z,99735.23
2018-08-24T15:00:25.038Z,99727.44
2018-08-24T15:02:53.486Z,99734.24
2018-08-24T15:05:22.769Z,99732.56
2018-08-24T15:07:51.234Z,99731.17
2018-08-24T15:10:19.695Z,99732.20
2018-08-24T15:12:48.382Z,99729.23
2018-08-24T15:15:16.881Z,99731.12
2018-08-24T15:17:45.318Z,99720.77
2018-08-24T15:20:14.788Z,99728.00
2018-08-24T15:22:43.241Z,99727.20
2018-08-24T15:25:11.682Z,99728.67
2018-08-24T15:27:40.277Z,99730.14
2018-08-24T15:30:09.121Z,99728.10
2018-08-24T15:32:37.602Z,99730.31
2018-08-24T15:35:06.612Z,99726.02
2018-08-24T15:37:35.073Z,99735.34
2018-08-24T15:40:03.533Z,99736.61
2018-08-24T15:42:38.745Z,99732.68
2018-08-24T15:45:07.336Z,99729.79
2018-08-24T15:47:35.816Z,99734.58
2018-08-24T15:50:04.531Z,99723.27
2018-08-24T15:52:33.001Z,99726.66
2018-08-24T15:55:01.461Z,99721.61
2018-08-24T15:57:30.226Z,99731.45
2018-08-24T15:59:58.806Z,99723.97
2018-08-24T16:02:27.249Z,99730.12
2018-08-24T16:04:55.797Z,99728.72
2018-08-24T16:07:24.313Z,99733.08
2018-08-24T16:09:52.778Z,99735.05
2018-08-24T16:12:21.348Z,99732.08
2018-08-24T16:14:49.785Z,99739.56
2018-08-24T16:17:18.209Z,99721.59
2018-08-24T16:19:46.833Z,99719.00
2018-08-24T16:22:15.247Z,99715.81
2018-08-24T16:24:44.381Z,99725.57
2018-08-24T16:27:17.593Z,99728.75
2018-08-24T16:29:46.210Z,99726.50
2018-08-24T16:32:15.470Z,99724.04
2018-08-24T16:34:43.957Z,99706.77
2018-08-24T16:37:13.034Z,99713.89
2018-08-24T16:39:41.537Z,99706.77
2018-08-24T16:42:10.005Z,99715.22
2018-08-24T16:44:38.418Z,99714.88
2018-08-24T16:47:06.939Z,99704.88
2018-08-24T16:49:35.610Z,99706.52
2018-08-24T16:52:04.033Z,99716.77
2018-08-24T16:54:32.533Z,99710.98
2018-08-24T16:57:01.041Z,99707.38
2018-08-24T16:59:29.705Z,99695.89
2018-08-24T17:01:58.294Z,99691.91
2018-08-24T17:04:26.781Z,99692.61
2018-08-24T17:06:55.205Z,99702.63
2018-08-24T17:09:23.969Z,99692.91
2018-08-24T17:11:52.513Z,99682.62
2018-08-24T17:14:20.938Z,99680.22
2018-08-24T17:16:49.698Z,99688.09
2018-08-24T17:19:18.216Z,99697.83
2018-08-24T17:21:46.645Z,99692.34
2018-08-24T17:24:21.905Z,99684.44
2018-08-24T17:26:50.335Z,99679.77
2018-08-24T17:29:18.976Z,99682.02
2018-08-24T17:31:47.697Z,99690.95
2018-08-24T17:34:17.519Z,99693.67
2018-08-24T17:36:46.673Z,99692.15
2018-08-24T17:39:15.234Z,99702.92
2018-08-24T17:41:44.171Z,99700.22
2018-08-24T17:44:12.709Z,99702.51
2018-08-24T17:46:41.800Z,99710.67
2018-08-24T17:49:10.215Z,99719.52
2018-08-24T17:51:38.773Z,99715.91
2018-08-24T17:54:07.781Z,99710.77
2018-08-24T17:56:36.224Z,99707.52
2018-08-24T17:59:05.323Z,99714.95
2018-08-24T18:01:34.357Z,99712.25
2018-08-24T18:04:02.797Z,99710.97
2018-08-24T18:06:31.233Z,99701.23
2018-08-24T18:09:00.481Z,99707.39
2018-08-24T18:11:28.904Z,99710.55
2018-08-24T18:13:57.365Z,99716.01
2018-08-24T18:16:26.005Z,99710.69
2018-08-24T18:18:54.417Z,99720.83
2018-08-24T18:21:22.854Z,99721.70
2018-08-24T18:23:51.619Z,99725.73
2018-08-24T18:26:26.630Z,99730.78
2018-08-24T18:28:55.970Z,99727.88
2018-08-24T18:31:24.408Z,99722.59
2018-08-24T18:33:52.877Z,99722.23
2018-08-24T18:36:22.030Z,99723.81
2018-08-24T18:38:50.471Z,99717.79
2018-08-24T18:41:18.894Z,99717.83
2018-08-24T18:43:47.537Z,99727.22
2018-08-24T18:46:16.194Z,99729.17
2018-08-24T18:48:44.733Z,99742.22
2018-08-24T18:51:13.584Z,99753.64
2018-08-24T18:53:42.059Z,99771.41
2018-08-24T18:56:10.489Z,99785.22
2018-08-24T18:58:39.355Z,99809.41
2018-08-24T19:01:07.798Z,99806.09
2018-08-24T19:03:36.411Z,99789.81
2018-08-24T19:06:05.110Z,99808.94
2018-08-24T19:08:33.534Z,99794.78
2018-08-24T19:11:07.347Z,99790.56
2018-08-24T19:13:35.898Z,99802.13
2018-08-24T19:16:04.362Z,99813.66
2018-08-24T19:18:38.233Z,99821.62
2018-08-24T19:21:11.885Z,99829.13
2018-08-24T19:23:40.685Z,99831.34
2018-08-24T19:26:09.134Z,99827.38
2018-08-24T19:28:43.667Z,99831.80
2018-08-24T19:31:12.618Z,99830.04
2018-08-24T19:33:42.165Z,99827.40
2018-08-24T19:36:10.653Z,99822.58
2018-08-24T19:38:39.590Z,99826.98
2018-08-24T19:41:13.265Z,99829.63
2018-08-24T19:43:42.078Z,99830.06
2018-08-24T19:46:10.497Z,99819.97
2018-08-24T19:48:44.093Z,99816.42
2018-08-24T19:51:12.853Z,99809.38
2018-08-24T19:53:41.513Z,99806.30
2018-08-24T19:56:09.973Z,99804.58
2018-08-24T19:58:43.784Z,99803.70
2018-08-24T20:01:12.303Z,99815.58
2018-08-24T20:03:40.969Z,99812.98
2018-08-24T20:06:14.509Z,99817.37
2018-08-24T20:08:48.145Z,99824.42
2018-08-24T20:11:16.773Z,99819.15
2018-08-24T20:13:45.715Z,99823.12
2018-08-24T20:16:19.545Z,99827.09
2018-08-24T20:18:48.154Z,99831.94
2018-08-24T20:21:16.573Z,99825.80
2018-08-24T20:23:45.927Z,99819.21
2018-08-24T20:26:15.228Z,99816.14
2018-08-24T20:28:43.715Z,99822.73
2018-08-24T20:31:12.173Z,99813.52
2018-08-24T20:33:40.788Z,99810.00
2018-08-24T20:36:09.362Z,99820.13
2018-08-24T20:38:37.810Z,99828.48
2018-08-24T20:41:06.981Z,99844.33
2018-08-24T20:43:35.450Z,99841.70
2018-08-24T20:46:03.913Z,99854.45
2018-08-24T20:48:32.867Z,99852.70
2018-08-24T20:51:01.542Z,99865.02
2018-08-24T20:53:30.091Z,99870.30
2018-08-24T20:55:58.613Z,99854.04
2018-08-24T20:58:27.041Z,99877.34
2018-08-24T21:00:55.513Z,99883.91
2018-08-24T21:03:24.269Z,99893.14
2018-08-24T21:05:53.049Z,99890.95
2018-08-24T21:08:21.454Z,99897.55
2018-08-24T21:10:50.324Z,99902.38
2018-08-24T21:13:18.788Z,99899.75
2018-08-24T21:15:47.260Z,99907.66
2018-08-24T21:18:16.194Z,99903.27
2018-08-24T21:20:44.845Z,99901.52
2018-08-24T21:23:13.442Z,99901.52
2018-08-24T21:25:42.091Z,99905.91
2018-08-24T21:28:10.545Z,99905.03
2018-08-24T21:30:39.001Z,99917.34
2018-08-24T21:33:07.610Z,99916.91
2018-08-24T21:35:36.046Z,99923.50
2018-08-24T21:38:04.601Z,99919.10
2018-08-24T21:40:33.339Z,99916.91
2018-08-24T21:43:01.966Z,99919.11
2018-08-24T21:45:30.437Z,99924.83
2018-08-24T21:47:59.169Z,99927.02
2018-08-24T21:50:28.186Z,99921.75
2018-08-24T21:52:56.674Z,99924.39
2018-08-24T21:55:25.529Z,99935.81
2018-08-24T21:57:54.026Z,99935.38
2018-08-24T22:00:24.365Z,99935.81
2018-08-24T22:02:52.877Z,99948.12
2018-08-24T22:05:21.310Z,99941.97
2018-08-24T22:07:50.007Z,99953.83
2018-08-24T22:10:18.869Z,99942.84
2018-08-24T22:12:47.367Z,99945.04
2018-08-24T22:15:15.881Z,99952.52
2018-08-24T22:17:44.467Z,99945.48
2018-08-24T22:20:12.897Z,99948.12
2018-08-24T22:22:41.387Z,99952.95
2018-08-24T22:25:10.296Z,99954.27
2018-08-24T22:27:38.713Z,99952.06
2018-08-24T22:30:07.229Z,99959.53
2018-08-24T22:32:36.022Z,99960.84
2018-08-24T22:35:04.519Z,99963.91
2018-08-24T22:37:33.226Z,99969.18
2018-08-24T22:40:01.771Z,99972.69
2018-08-24T22:42:30.219Z,99975.77
2018-08-24T22:44:59.101Z,99981.03
2018-08-24T22:47:28.137Z,99983.66
2018-08-24T22:49:56.573Z,99995.08
2018-08-24T22:52:25.121Z,100001.22
2018-08-24T22:54:53.894Z,100005.17
2018-08-24T22:57:22.329Z,99999.45
2018-08-24T22:59:50.853Z,100000.33
2018-08-24T23:02:19.637Z,100003.40
2018-08-24T23:04:48.077Z,99996.81
2018-08-24T23:07:16.889Z,99997.24
2018-08-24T23:09:45.990Z,99994.60
2018-08-24T23:12:14.589Z,99997.67
2018-08-24T23:14:43.101Z,99998.10
2018-08-24T23:17:11.769Z,99998.55
2018-08-24T23:19:40.540Z,99998.55
2018-08-24T23:22:09.113Z,100005.12
2018-08-24T23:24:37.798Z,100017.84
2018-08-24T23:27:07.197Z,100022.22
2018-08-24T23:29:35.685Z,100023.98
2018-08-24T23:32:04.484Z,100025.73
2018-08-24T23:34:32.949Z,99982.23
2018-08-24T23:37:01.421Z,100007.73
2018-08-24T23:39:30.480Z,100003.36
2018-08-24T23:41:58.924Z,100000.28
2018-08-24T23:44:27.421Z,100006.87
2018-08-24T23:46:56.541Z,100003.80
2018-08-24T23:49:24.983Z,100006.42
2018-08-24T23:51:53.465Z,100003.36
2018-08-24T23:54:22.337Z,100009.95
2018-08-24T23:56:50.791Z,100008.62
2018-08-24T23:59:19.253Z,100007.31
